Time;durP1;ratioP1;P1;durP2;ratioP2;P2;SDS_P1;SDS_P2;PMS_P1;PMS_P2;Temp;Humidity;BMP_temperature;BMP_pressure;BME280_temperature;BME280_humidity;BME280_pressure;Samples;Min_cycle;Max_cycle;Signal;HPM_P1;HPM_P2
2023/04/22 00:00:18;;;;;;;3.00;2.77;;;16.80;52.50;;;;;;5057183;28;20548;-85
2023/04/22 00:02:45;;;;;;;2.90;2.70;;;16.80;52.40;;;;;;5102481;27;20757;-86
2023/04/22 00:05:13;;;;;;;2.80;2.60;;;16.70;52.40;;;;;;5086350;27;20463;-84
2023/04/22 00:07:41;;;;;;;2.80;2.37;;;16.70;52.40;;;;;;5051326;28;20999;-87
2023/04/22 00:10:10;;;;;;;3.23;2.10;;;16.50;52.80;;;;;;5084959;28;20621;-85
2023/04/22 00:12:37;;;;;;;2.67;2.43;;;16.40;52.70;;;;;;5100276;27;20544;-86
2023/04/22 00:15:04;;;;;;;2.93;2.67;;;16.40;52.20;;;;;;5048275;28;20464;-86
2023/04/22 00:17:32;;;;;;;2.27;2.07;;;16.20;53.00;;;;;;5050240;27;20526;-86
2023/04/22 00:20:00;;;;;;;2.77;2.30;;;16.10;53.60;;;;;;5091178;27;20866;-86
2023/04/22 00:22:27;;;;;;;2.87;2.47;;;16.30;53.70;;;;;;5092323;27;20455;-86
2023/04/22 00:24:55;;;;;;;3.63;2.70;;;16.50;53.60;;;;;;5086528;28;20566;-88
2023/04/22 00:27:22;;;;;;;4.77;2.67;;;16.60;53.40;;;;;;5048038;28;20470;-86
2023/04/22 00:29:49;;;;;;;3.57;2.53;;;16.40;53.10;;;;;;5094632;27;20591;-85
2023/04/22 00:32:17;;;;;;;2.70;2.50;;;16.30;53.40;;;;;;5065260;28;20447;-86
2023/04/22 00:34:44;;;;;;;4.27;2.47;;;16.50;53.60;;;;;;5065370;28;20482;-85
2023/04/22 00:37:11;;;;;;;6.70;4.77;;;16.60;53.10;;;;;;5097297;27;20482;-86
2023/04/22 00:39:38;;;;;;;4.43;3.67;;;16.50;53.90;;;;;;5093028;27;20536;-87
2023/04/22 00:42:07;;;;;;;7.23;4.37;;;16.30;54.80;;;;;;5083835;28;20509;-86
2023/04/22 00:44:36;;;;;;;6.47;3.73;;;16.40;54.70;;;;;;5072505;28;20481;-86
2023/04/22 00:47:03;;;;;;;4.07;3.30;;;16.60;54.70;;;;;;5074638;28;20538;-86
2023/04/22 00:49:31;;;;;;;3.87;3.10;;;16.70;54.30;;;;;;5066136;28;20544;-86
2023/04/22 00:51:58;;;;;;;5.37;4.07;;;16.70;53.70;;;;;;5075713;28;20580;-86
2023/04/22 00:54:25;;;;;;;3.83;2.77;;;16.70;53.70;;;;;;5054386;28;20881;-86
2023/04/22 00:56:53;;;;;;;3.40;3.00;;;16.60;53.10;;;;;;5066330;28;20563;-86
2023/04/22 00:59:23;;;;;;;3.40;2.63;;;16.40;53.90;;;;;;5072621;27;20489;-87
2023/04/22 01:01:51;;;;;;;3.90;3.50;;;16.40;53.90;;;;;;5058257;28;20464;-87
2023/04/22 01:04:18;;;;;;;3.20;2.90;;;16.40;54.40;;;;;;5070646;28;20494;-86
2023/04/22 01:06:46;;;;;;;4.50;3.17;;;16.50;54.40;;;;;;5062160;28;20537;-85
2023/04/22 01:09:14;;;;;;;3.47;3.17;;;16.60;54.10;;;;;;5109550;27;20469;-85
2023/04/22 01:11:41;;;;;;;3.83;2.93;;;16.60;53.60;;;;;;5107982;27;20554;-87
2023/04/22 01:14:08;;;;;;;4.53;3.10;;;16.60;53.90;;;;;;5045721;28;20465;-86
2023/04/22 01:16:37;;;;;;;4.13;3.33;;;16.50;54.10;;;;;;5075769;28;20506;-86
2023/04/22 01:19:05;;;;;;;3.50;3.20;;;16.10;54.90;;;;;;5083946;28;20794;-86
2023/04/22 01:21:33;;;;;;;5.67;3.00;;;16.00;54.90;;;;;;5088132;28;20838;-85
2023/04/22 01:24:02;;;;;;;7.23;3.60;;;15.90;55.00;;;;;;5075199;28;20508;-87
2023/04/22 01:26:29;;;;;;;4.27;3.87;;;16.00;54.30;;;;;;5055539;28;20538;-85
2023/04/22 01:28:56;;;;;;;3.57;3.13;;;16.10;54.30;;;;;;5074103;28;20523;-85
2023/04/22 01:31:23;;;;;;;4.40;2.70;;;15.90;54.60;;;;;;5054606;28;20452;-86
2023/04/22 01:33:51;;;;;;;5.63;3.97;;;15.80;54.80;;;;;;5054431;28;20532;-86
2023/04/22 01:36:18;;;;;;;4.53;3.10;;;15.60;55.60;;;;;;5047120;28;20447;-84
2023/04/22 01:38:45;;;;;;;3.60;2.93;;;15.20;56.20;;;;;;5074020;28;20456;-86
2023/04/22 01:41:14;;;;;;;4.43;3.00;;;15.30;56.50;;;;;;5074923;28;20968;-86
2023/04/22 01:43:44;;;;;;;4.33;3.30;;;15.60;56.10;;;;;;5074623;28;20455;-85
2023/04/22 01:46:11;;;;;;;3.87;2.93;;;15.80;55.30;;;;;;5089798;28;20447;-85
2023/04/22 01:48:40;;;;;;;4.90;3.70;;;16.00;54.70;;;;;;5096962;28;20450;-86
2023/04/22 01:51:07;;;;;;;4.10;3.17;;;16.10;54.70;;;;;;5074692;28;20547;-86
2023/04/22 01:53:34;;;;;;;10.20;5.10;;;16.20;54.60;;;;;;5048312;28;20474;-86
2023/04/22 01:56:01;;;;;;;17.90;9.07;;;16.20;53.50;;;;;;5094332;28;20451;-86
2023/04/22 01:58:30;;;;;;;14.97;8.40;;;16.10;53.30;;;;;;5081800;28;20478;-87
2023/04/22 02:00:58;;;;;;;10.80;6.83;;;15.90;53.50;;;;;;5074509;28;20471;-86
2023/04/22 02:03:25;;;;;;;5.70;4.30;;;15.90;54.40;;;;;;5064814;27;20550;-86
2023/04/22 02:05:53;;;;;;;6.47;4.20;;;15.40;55.50;;;;;;5066487;28;20516;-85
2023/04/22 02:08:21;;;;;;;7.47;4.40;;;15.10;56.30;;;;;;5047273;27;20564;-86
2023/04/22 02:10:48;;;;;;;6.83;4.33;;;15.30;56.50;;;;;;5085361;28;20472;-86
2023/04/22 02:13:15;;;;;;;5.63;4.23;;;15.60;56.40;;;;;;5083531;28;20502;-85
2023/04/22 02:15:43;;;;;;;4.10;3.57;;;15.70;56.00;;;;;;5039045;28;20436;-87
2023/04/22 02:18:10;;;;;;;3.87;3.43;;;15.80;55.80;;;;;;5047407;28;20504;-86
2023/04/22 02:20:37;;;;;;;4.67;3.83;;;16.00;55.50;;;;;;5059866;28;20446;-85
2023/04/22 02:23:06;;;;;;;5.70;3.87;;;16.00;55.20;;;;;;5088848;28;20479;-87
2023/04/22 02:25:33;;;;;;;4.73;3.43;;;16.00;55.10;;;;;;5070105;28;20906;-87
2023/04/22 02:28:00;;;;;;;5.37;4.17;;;16.10;55.00;;;;;;5063321;28;20486;-85
2023/04/22 02:30:27;;;;;;;12.40;3.70;;;16.10;54.90;;;;;;5054874;28;20994;-85
2023/04/22 02:32:56;;;;;;;4.03;3.07;;;16.00;54.90;;;;;;5080847;28;21022;-84
2023/04/22 02:35:23;;;;;;;3.57;2.87;;;15.80;55.60;;;;;;5049651;28;20450;-86
2023/04/22 02:37:51;;;;;;;4.30;3.90;;;15.80;55.40;;;;;;5054322;28;20439;-85
2023/04/22 02:40:18;;;;;;;4.40;3.70;;;15.90;55.40;;;;;;5062892;28;20467;-86
2023/04/22 02:42:47;;;;;;;5.63;3.50;;;15.90;55.50;;;;;;5073728;28;20479;-84
2023/04/22 02:45:14;;;;;;;4.20;3.57;;;16.00;55.20;;;;;;5065206;28;21238;-87
2023/04/22 02:47:43;;;;;;;7.30;3.57;;;16.00;55.20;;;;;;5060492;28;20474;-87
2023/04/22 02:50:11;;;;;;;5.80;3.40;;;16.00;55.20;;;;;;5106002;27;20455;-85
2023/04/22 02:52:38;;;;;;;5.70;3.57;;;15.90;55.20;;;;;;5073304;28;20541;-85
2023/04/22 02:55:06;;;;;;;4.10;3.63;;;16.00;55.30;;;;;;5074858;28;20439;-85
2023/04/22 02:57:34;;;;;;;4.93;3.93;;;16.00;55.50;;;;;;5070740;28;20443;-86
2023/04/22 03:00:01;;;;;;;3.63;3.33;;;15.90;55.40;;;;;;5048402;28;20562;-86
2023/04/22 03:02:28;;;;;;;4.47;3.60;;;16.00;55.30;;;;;;5046290;28;20971;-86
2023/04/22 03:05:06;;;;;;;4.00;3.10;;;15.90;54.80;;;;;;5049259;28;20466;-85
2023/04/22 03:07:34;;;;;;;5.53;3.60;;;15.90;54.00;;;;;;5106373;27;20432;-85
2023/04/22 03:10:01;;;;;;;4.23;2.97;;;15.80;55.00;;;;;;5066068;28;20494;-86
2023/04/22 03:12:30;;;;;;;8.13;3.43;;;15.70;55.60;;;;;;5069563;28;20455;-88
2023/04/22 03:14:57;;;;;;;5.60;3.90;;;15.60;55.90;;;;;;5090769;28;21017;-87
2023/04/22 03:17:28;;;;;;;6.87;3.30;;;15.60;56.00;;;;;;5078756;28;20444;-84
2023/04/22 03:19:55;;;;;;;4.20;3.23;;;15.70;56.40;;;;;;5074520;28;20481;-86
2023/04/22 03:22:22;;;;;;;4.23;3.83;;;15.70;55.20;;;;;;5074991;28;20870;-85
2023/04/22 03:24:54;;;;;;;6.03;3.40;;;15.70;55.40;;;;;;5065915;28;20467;-86
2023/04/22 03:27:21;;;;;;;3.57;3.20;;;15.70;55.20;;;;;;5064426;28;20521;-86
2023/04/22 03:29:49;;;;;;;6.57;3.70;;;15.60;55.80;;;;;;5050495;28;20451;-85
2023/04/22 03:32:16;;;;;;;4.17;3.43;;;15.70;55.70;;;;;;5069587;28;21007;-86
2023/04/22 03:34:43;;;;;;;4.77;3.83;;;15.70;55.40;;;;;;5071949;28;20463;-83
2023/04/22 03:37:10;;;;;;;4.10;3.70;;;15.60;55.70;;;;;;5066433;28;20532;-87
2023/04/22 03:39:38;;;;;;;4.17;3.60;;;15.10;56.70;;;;;;5045556;28;20443;-86
2023/04/22 03:42:07;;;;;;;5.63;3.80;;;15.00;57.30;;;;;;5081530;28;20512;-86
2023/04/22 03:44:38;;;;;;;6.60;3.93;;;15.10;57.10;;;;;;5092335;27;20471;-86
2023/04/22 03:47:05;;;;;;;3.80;3.40;;;15.10;57.10;;;;;;5079771;28;21049;-87
2023/04/22 03:49:38;;;;;;;4.53;3.13;;;15.10;57.30;;;;;;5065347;27;20534;-84
2023/04/22 03:52:05;;;;;;;4.03;3.63;;;15.20;57.00;;;;;;5068053;28;20458;-86
2023/04/22 03:54:32;;;;;;;4.30;3.70;;;15.30;56.60;;;;;;5050593;28;20476;-86
2023/04/22 03:56:59;;;;;;;8.67;4.03;;;15.40;56.00;;;;;;5087432;28;20939;-86
2023/04/22 03:59:28;;;;;;;4.13;3.20;;;15.50;56.40;;;;;;5066007;28;20798;-86
2023/04/22 04:01:56;;;;;;;4.17;3.70;;;15.50;56.30;;;;;;5059727;28;20482;-86
2023/04/22 04:04:28;;;;;;;5.00;3.80;;;15.60;56.20;;;;;;5090035;27;20555;-83
2023/04/22 04:06:59;;;;;;;3.80;3.40;;;15.70;56.10;;;;;;5095079;28;20627;-86
2023/04/22 04:09:27;;;;;;;3.60;3.17;;;15.70;56.20;;;;;;5070829;28;20439;-86
2023/04/22 04:11:55;;;;;;;3.90;3.27;;;15.70;56.30;;;;;;5053750;28;20501;-85
2023/04/22 04:14:22;;;;;;;8.97;4.10;;;15.70;56.20;;;;;;5045359;28;20511;-85
2023/04/22 04:16:53;;;;;;;3.73;3.40;;;15.70;56.00;;;;;;5075313;28;21014;-86
2023/04/22 04:19:26;;;;;;;5.50;4.27;;;15.70;56.30;;;;;;5075536;27;20903;-86
2023/04/22 04:21:54;;;;;;;4.23;3.63;;;15.60;56.50;;;;;;5082682;27;20443;-86
2023/04/22 04:24:22;;;;;;;5.80;3.60;;;15.60;56.40;;;;;;5066871;27;20473;-84
2023/04/22 04:26:52;;;;;;;4.20;3.50;;;15.60;56.40;;;;;;5062240;28;20459;-86
2023/04/22 04:29:24;;;;;;;3.50;3.20;;;15.60;56.40;;;;;;5050214;27;20607;-86
2023/04/22 04:32:07;;;;;;;5.90;4.53;;;15.60;56.50;;;;;;5048863;28;20466;-87
2023/04/22 04:34:35;;;;;;;5.90;3.73;;;15.60;56.40;;;;;;5064113;28;20458;-86
2023/04/22 04:37:03;;;;;;;4.40;3.07;;;15.60;56.40;;;;;;5094774;27;20542;-86
2023/04/22 04:39:40;;;;;;;8.03;3.40;;;15.70;56.50;;;;;;5065720;28;20533;-86
2023/04/22 04:42:08;;;;;;;6.03;4.60;;;15.70;56.60;;;;;;5094411;27;20546;-85
2023/04/22 04:44:43;;;;;;;8.83;7.00;;;15.60;56.30;;;;;;5076501;27;21016;-86
2023/04/22 04:47:13;;;;;;;7.10;5.90;;;15.70;56.50;;;;;;5093316;27;20464;-87
2023/04/22 04:49:42;;;;;;;6.17;5.53;;;15.70;56.40;;;;;;5097767;28;20462;-86
2023/04/22 04:52:10;;;;;;;7.73;6.50;;;15.60;56.30;;;;;;5091001;28;20443;-86
2023/04/22 04:54:39;;;;;;;6.07;4.60;;;15.70;56.50;;;;;;5075175;28;20988;-85
2023/04/22 04:57:08;;;;;;;9.20;4.53;;;15.70;56.50;;;;;;5049344;28;20451;-85
2023/04/22 04:59:36;;;;;;;6.53;3.60;;;15.70;56.30;;;;;;5076524;27;20436;-85
2023/04/22 05:02:03;;;;;;;7.20;4.20;;;15.70;56.40;;;;;;5050104;28;20996;-87
2023/04/22 05:04:32;;;;;;;7.70;4.03;;;15.80;56.50;;;;;;5059575;27;21071;-86
2023/04/22 05:06:59;;;;;;;8.00;4.10;;;15.80;56.50;;;;;;5076544;28;20513;-87
2023/04/22 05:09:27;;;;;;;4.60;3.77;;;15.80;56.30;;;;;;5066700;28;20639;-85
2023/04/22 05:11:54;;;;;;;5.10;4.20;;;15.80;56.50;;;;;;5085325;28;20448;-86
2023/04/22 05:14:22;;;;;;;6.20;3.73;;;15.80;56.80;;;;;;5057772;28;20480;-85
2023/04/22 05:16:49;;;;;;;4.20;3.70;;;15.80;56.80;;;;;;5044908;27;20898;-85
2023/04/22 05:19:16;;;;;;;4.90;4.40;;;15.80;56.80;;;;;;5078462;28;20512;-85
2023/04/22 05:21:45;;;;;;;5.63;4.80;;;15.90;56.80;;;;;;5084680;27;20439;-86
2023/04/22 05:24:12;;;;;;;5.57;5.07;;;15.90;56.70;;;;;;5067672;28;20482;-86
2023/04/22 05:26:39;;;;;;;11.03;4.77;;;15.90;56.90;;;;;;5093975;27;20478;-86
2023/04/22 05:29:13;;;;;;;6.67;4.80;;;15.80;56.50;;;;;;5079035;28;20443;-86
2023/04/22 05:31:40;;;;;;;6.43;5.00;;;15.80;56.50;;;;;;5067269;28;20451;-86
2023/04/22 05:34:07;;;;;;;6.40;5.43;;;15.80;56.70;;;;;;5069940;28;20470;-85
2023/04/22 05:36:35;;;;;;;7.73;6.03;;;15.80;57.00;;;;;;5091755;27;20452;-86
2023/04/22 05:39:04;;;;;;;8.73;7.00;;;15.90;56.80;;;;;;5061805;28;20444;-85
2023/04/22 05:41:32;;;;;;;7.20;5.50;;;15.90;56.70;;;;;;5049374;28;20463;-88
2023/04/22 05:44:00;;;;;;;7.70;5.73;;;15.80;56.90;;;;;;5051147;28;20640;-87
2023/04/22 05:46:29;;;;;;;9.87;7.13;;;15.70;57.10;;;;;;5058303;28;20917;-85
2023/04/22 05:48:56;;;;;;;10.90;8.17;;;15.60;57.50;;;;;;5070322;28;20504;-86
2023/04/22 05:51:53;;;;;;;13.57;8.37;;;15.50;57.90;;;;;;5073188;28;20463;-85
2023/04/22 05:54:25;;;;;;;11.00;6.90;;;15.50;58.20;;;;;;5075205;28;20482;-86
2023/04/22 05:56:52;;;;;;;7.70;6.20;;;15.40;58.40;;;;;;5096958;27;20527;-85
2023/04/22 05:59:19;;;;;;;5.73;4.93;;;15.30;58.80;;;;;;5091995;27;20912;-85
2023/04/22 06:01:46;;;;;;;5.30;4.80;;;15.50;58.50;;;;;;5093178;27;20447;-86
2023/04/22 06:04:18;;;;;;;6.20;5.37;;;15.60;58.10;;;;;;5107625;27;21023;-86
2023/04/22 06:06:46;;;;;;;9.67;5.63;;;15.80;57.80;;;;;;5043847;28;20725;-88
2023/04/22 06:09:14;;;;;;;7.30;5.13;;;15.90;57.20;;;;;;5091620;28;20452;-86
2023/04/22 06:11:43;;;;;;;6.37;4.43;;;15.70;56.90;;;;;;5082654;28;20536;-86
2023/04/22 06:14:11;;;;;;;6.07;4.63;;;15.40;57.60;;;;;;5074611;28;20479;-87
2023/04/22 06:16:39;;;;;;;6.20;3.83;;;15.40;57.70;;;;;;5072782;28;20693;-85
2023/04/22 06:19:07;;;;;;;4.43;4.00;;;15.40;57.60;;;;;;5060333;28;20444;-86
2023/04/22 06:21:36;;;;;;;5.60;4.60;;;15.60;57.80;;;;;;5075841;28;20448;-85
2023/04/22 06:24:04;;;;;;;6.50;5.23;;;15.80;57.10;;;;;;5066634;28;20504;-86
2023/04/22 06:26:32;;;;;;;5.20;4.70;;;15.60;57.80;;;;;;5091066;28;20473;-85
2023/04/22 06:29:01;;;;;;;6.40;4.80;;;15.80;57.50;;;;;;5075666;28;20509;-86
2023/04/22 06:31:28;;;;;;;9.20;5.43;;;15.70;57.60;;;;;;5066274;28;20459;-86
2023/04/22 06:33:55;;;;;;;8.07;4.80;;;15.60;57.90;;;;;;5068015;28;20501;-85
2023/04/22 06:36:23;;;;;;;4.70;4.30;;;15.70;57.70;;;;;;5089769;28;20949;-87
2023/04/22 06:38:56;;;;;;;5.40;4.00;;;15.80;57.60;;;;;;5064639;28;20444;-87
2023/04/22 06:41:24;;;;;;;8.30;5.20;;;15.70;57.60;;;;;;5093547;28;20966;-86
2023/04/22 06:43:53;;;;;;;8.13;5.00;;;15.70;57.70;;;;;;5047955;28;20521;-87
2023/04/22 06:46:40;;;;;;;7.73;4.63;;;15.90;57.70;;;;;;5090801;27;20474;-86
2023/04/22 06:49:27;;;;;;;10.20;4.57;;;16.10;57.30;;;;;;5071312;28;20487;-86
2023/04/22 06:52:27;;;;;;;7.50;4.83;;;16.10;56.70;;;;;;5068164;28;20472;-87
2023/04/22 06:54:57;;;;;;;7.03;4.23;;;15.70;57.20;;;;;;5041129;28;21093;-87
2023/04/22 06:57:24;;;;;;;10.17;5.90;;;15.90;57.90;;;;;;5061661;28;20447;-85
2023/04/22 06:59:51;;;;;;;6.07;4.33;;;16.10;56.70;;;;;;5076820;28;20501;-86
2023/04/22 07:02:20;;;;;;;4.30;3.90;;;16.10;56.80;;;;;;5078688;28;20448;-86
2023/04/22 07:04:47;;;;;;;6.87;4.80;;;16.10;57.10;;;;;;5082317;28;20562;-86
2023/04/22 07:07:14;;;;;;;6.63;5.43;;;16.20;56.90;;;;;;5110203;27;20531;-86
2023/04/22 07:09:41;;;;;;;9.07;5.77;;;16.10;57.00;;;;;;5080567;28;20466;-86
2023/04/22 07:12:09;;;;;;;7.13;5.27;;;16.00;57.50;;;;;;5081065;28;20542;-86
2023/04/22 07:14:36;;;;;;;5.80;4.97;;;16.10;57.80;;;;;;5068924;28;20988;-85
2023/04/22 07:17:03;;;;;;;7.03;5.50;;;16.30;57.30;;;;;;5080664;28;20446;-86
2023/04/22 07:19:32;;;;;;;8.10;5.80;;;16.40;57.00;;;;;;5044203;28;20458;-85
2023/04/22 07:21:59;;;;;;;8.33;6.10;;;16.40;57.10;;;;;;5075489;28;20491;-85
2023/04/22 07:24:26;;;;;;;4.80;4.30;;;16.60;56.90;;;;;;5088913;28;20463;-84
2023/04/22 07:26:53;;;;;;;5.63;4.03;;;16.80;56.00;;;;;;5072539;28;20466;-84
2023/04/22 07:29:20;;;;;;;8.40;5.50;;;16.80;55.40;;;;;;5091662;28;20444;-86
2023/04/22 07:31:47;;;;;;;6.47;5.40;;;16.90;55.40;;;;;;5060034;28;20443;-86
2023/04/22 07:34:14;;;;;;;7.30;5.07;;;16.90;55.30;;;;;;5070063;28;20568;-84
2023/04/22 07:36:42;;;;;;;10.50;7.33;;;16.90;55.30;;;;;;5069160;28;20450;-86
2023/04/22 07:39:09;;;;;;;11.13;7.20;;;16.90;55.60;;;;;;5070417;28;20451;-85
2023/04/22 07:41:36;;;;;;;12.07;7.83;;;16.50;55.90;;;;;;5106233;27;20459;-85
2023/04/22 07:44:03;;;;;;;10.07;6.10;;;16.40;56.60;;;;;;5077472;28;20462;-86
2023/04/22 07:46:30;;;;;;;6.83;5.63;;;16.80;56.70;;;;;;5087206;28;20478;-85
2023/04/22 07:48:57;;;;;;;9.70;6.50;;;17.10;56.30;;;;;;5068663;28;21000;-85
2023/04/22 07:51:24;;;;;;;6.67;4.97;;;17.40;55.40;;;;;;5067067;28;20462;-85
2023/04/22 07:53:53;;;;;;;6.60;5.13;;;17.60;55.50;;;;;;5069325;28;21220;-85
2023/04/22 07:56:21;;;;;;;11.87;5.50;;;17.60;55.50;;;;;;5084783;28;20450;-85
2023/04/22 07:58:48;;;;;;;5.33;4.10;;;17.80;55.10;;;;;;5086301;28;21344;-85
2023/04/22 08:01:15;;;;;;;10.77;5.50;;;17.80;55.00;;;;;;5069729;28;20458;-84
2023/04/22 08:03:42;;;;;;;5.40;4.70;;;17.70;55.40;;;;;;5086549;28;20546;-86
2023/04/22 08:06:09;;;;;;;9.27;5.53;;;17.80;55.40;;;;;;5089454;28;20476;-84
2023/04/22 08:08:36;;;;;;;6.43;5.40;;;17.90;54.90;;;;;;5086781;28;20435;-84
2023/04/22 08:11:04;;;;;;;9.00;6.57;;;18.00;55.10;;;;;;5087578;28;20447;-85
2023/04/22 08:13:32;;;;;;;10.20;5.73;;;18.10;55.00;;;;;;5069513;28;20482;-84
2023/04/22 08:16:01;;;;;;;6.63;5.03;;;18.10;54.90;;;;;;5087089;28;20456;-85
2023/04/22 08:18:28;;;;;;;8.03;5.00;;;18.20;55.40;;;;;;5086133;28;20451;-84
2023/04/22 08:20:55;;;;;;;6.37;5.77;;;18.20;55.20;;;;;;5040440;28;20455;-84
2023/04/22 08:23:22;;;;;;;11.33;5.63;;;18.30;54.90;;;;;;5095338;28;20485;-86
2023/04/22 08:25:50;;;;;;;9.23;5.40;;;18.30;55.10;;;;;;5063014;28;20449;-86
2023/04/22 08:28:19;;;;;;;11.80;5.90;;;18.30;55.10;;;;;;5093430;28;20436;-85
2023/04/22 08:30:46;;;;;;;6.60;5.27;;;18.40;55.20;;;;;;5074801;28;20457;-85
2023/04/22 08:33:12;;;;;;;8.70;5.40;;;18.50;55.30;;;;;;5079644;28;20648;-85
2023/04/22 08:35:40;;;;;;;7.57;5.47;;;18.70;55.50;;;;;;5091076;27;20558;-86
2023/04/22 08:38:07;;;;;;;7.90;5.60;;;18.70;55.20;;;;;;5090478;27;20505;-85
2023/04/22 08:40:35;;;;;;;5.87;5.00;;;18.90;55.20;;;;;;5090141;28;20521;-85
2023/04/22 08:43:02;;;;;;;8.43;5.83;;;19.20;54.40;;;;;;5091619;28;20538;-86
2023/04/22 08:45:31;;;;;;;8.13;5.63;;;19.50;53.70;;;;;;5089362;27;20444;-85
2023/04/22 08:47:59;;;;;;;6.87;6.00;;;19.50;53.50;;;;;;5090396;28;20481;-85
2023/04/22 08:50:28;;;;;;;7.20;5.13;;;19.70;53.60;;;;;;5070836;28;20463;-84
2023/04/22 08:52:55;;;;;;;6.90;5.80;;;19.80;53.10;;;;;;5081677;28;20474;-86
2023/04/22 08:55:22;;;;;;;6.53;5.60;;;19.70;52.90;;;;;;5087235;27;20443;-86
2023/04/22 08:57:50;;;;;;;6.87;5.50;;;19.70;53.60;;;;;;5072252;27;20471;-86
2023/04/22 09:00:18;;;;;;;5.03;4.63;;;19.90;53.60;;;;;;5069888;28;20663;-88
2023/04/22 09:02:49;;;;;;;5.50;4.80;;;20.10;53.30;;;;;;5072956;27;20944;-85
2023/04/22 09:05:16;;;;;;;5.70;4.57;;;20.20;53.30;;;;;;5091679;27;20455;-86
2023/04/22 09:07:43;;;;;;;6.43;5.20;;;20.30;52.70;;;;;;5069767;27;20598;-86
2023/04/22 09:10:11;;;;;;;10.40;5.47;;;20.20;52.50;;;;;;5104188;27;20452;-85
2023/04/22 09:12:40;;;;;;;6.07;5.47;;;20.40;53.00;;;;;;5087059;28;20442;-85
2023/04/22 09:15:08;;;;;;;6.40;5.00;;;20.50;52.50;;;;;;5069205;28;21037;-85
2023/04/22 09:17:37;;;;;;;5.90;5.30;;;20.60;51.70;;;;;;5088197;28;20971;-85
2023/04/22 09:20:08;;;;;;;4.63;4.00;;;20.70;51.10;;;;;;5088073;27;20439;-84
2023/04/22 09:22:40;;;;;;;6.10;5.27;;;20.90;51.40;;;;;;5089392;28;20958;-84
2023/04/22 09:25:16;;;;;;;7.03;4.60;;;21.20;51.20;;;;;;5074814;27;20443;-85
2023/04/22 09:27:50;;;;;;;7.50;4.50;;;21.30;50.80;;;;;;5088928;28;20907;-85
2023/04/22 09:30:19;;;;;;;6.33;4.57;;;21.40;52.00;;;;;;5087697;28;20954;-84
2023/04/22 09:32:53;;;;;;;6.20;4.60;;;21.70;51.80;;;;;;5085551;28;20886;-85
2023/04/22 09:35:27;;;;;;;6.50;4.87;;;21.90;52.10;;;;;;5069894;28;20451;-86
2023/04/22 09:37:54;;;;;;;5.73;4.07;;;22.10;50.90;;;;;;5090264;27;20657;-85
2023/04/22 09:40:22;;;;;;;4.43;4.03;;;22.20;50.10;;;;;;5080608;28;20496;-86
2023/04/22 09:42:50;;;;;;;4.33;3.93;;;22.30;49.70;;;;;;5071709;28;20844;-85
2023/04/22 09:45:26;;;;;;;7.17;4.70;;;22.40;49.90;;;;;;5089073;28;20439;-85
2023/04/22 09:47:55;;;;;;;4.43;4.00;;;22.50;49.60;;;;;;5103504;27;20994;-86
2023/04/22 09:50:24;;;;;;;4.10;3.67;;;22.80;49.10;;;;;;5086004;28;20461;-85
2023/04/22 09:52:56;;;;;;;4.57;4.13;;;22.60;48.00;;;;;;5089455;27;20497;-85
2023/04/22 09:55:25;;;;;;;4.47;3.97;;;22.70;48.90;;;;;;5063394;28;20452;-86
2023/04/22 09:57:54;;;;;;;6.07;3.93;;;22.90;48.80;;;;;;5088524;27;20443;-85
2023/04/22 10:00:22;;;;;;;3.93;2.93;;;23.20;47.60;;;;;;5067762;28;20513;-86
2023/04/22 10:02:49;;;;;;;4.70;2.70;;;23.40;45.60;;;;;;5052563;28;20498;-85
2023/04/22 10:05:16;;;;;;;2.47;2.23;;;23.60;45.20;;;;;;5055792;28;20504;-86
2023/04/22 10:07:44;;;;;;;2.83;2.30;;;23.60;43.30;;;;;;5072516;27;20566;-84
2023/04/22 10:10:13;;;;;;;2.97;2.30;;;23.50;44.10;;;;;;5092330;28;20471;-82
2023/04/22 10:12:40;;;;;;;3.80;3.50;;;23.70;42.50;;;;;;5089566;28;20448;-87
2023/04/22 10:15:08;;;;;;;2.43;2.23;;;23.70;42.00;;;;;;5090264;28;20977;-86
2023/04/22 10:17:37;;;;;;;2.33;2.13;;;23.80;43.30;;;;;;5054587;28;20483;-86
2023/04/22 10:20:12;;;;;;;2.60;2.40;;;24.10;44.10;;;;;;5062987;28;20456;-86
2023/04/22 10:22:41;;;;;;;2.47;2.20;;;24.30;42.50;;;;;;5089909;27;20436;-85
2023/04/22 10:25:13;;;;;;;2.23;2.03;;;24.30;41.50;;;;;;5059396;28;20447;-86
2023/04/22 10:27:40;;;;;;;1.87;1.77;;;24.20;42.80;;;;;;5105559;27;20464;-86
2023/04/22 10:30:09;;;;;;;4.80;2.13;;;24.20;42.30;;;;;;5090769;28;20450;-86
2023/04/22 10:32:36;;;;;;;2.23;1.90;;;24.00;40.90;;;;;;5081635;28;20459;-84
2023/04/22 10:35:12;;;;;;;2.43;1.83;;;23.70;42.70;;;;;;5091249;27;20440;-85
2023/04/22 10:37:42;;;;;;;4.57;2.00;;;23.30;42.20;;;;;;5074889;28;20442;-86
2023/04/22 10:40:12;;;;;;;2.07;1.90;;;23.60;42.50;;;;;;5084079;28;20443;-87
2023/04/22 10:42:41;;;;;;;1.77;1.67;;;23.80;42.30;;;;;;5090149;27;20455;-85
2023/04/22 10:45:14;;;;;;;3.20;2.90;;;24.20;42.90;;;;;;5089344;28;20834;-85
2023/04/22 10:47:41;;;;;;;1.90;1.80;;;24.50;42.60;;;;;;5075652;28;21194;-85
2023/04/22 10:50:20;;;;;;;2.10;1.80;;;24.60;40.60;;;;;;5057547;28;20462;-86
2023/04/22 10:52:49;;;;;;;2.37;2.17;;;24.60;39.40;;;;;;5105960;27;20546;-85
2023/04/22 10:55:17;;;;;;;4.63;2.27;;;24.40;40.00;;;;;;5066524;28;20447;-86
2023/04/22 10:57:47;;;;;;;2.17;1.90;;;24.50;40.90;;;;;;5045254;28;20968;-84
2023/04/22 11:00:25;;;;;;;2.20;2.10;;;24.60;40.20;;;;;;5089679;28;20440;-85
2023/04/22 11:02:54;;;;;;;2.50;2.30;;;25.00;40.10;;;;;;5079414;28;20491;-85
2023/04/22 11:05:25;;;;;;;5.27;2.00;;;24.60;39.50;;;;;;5091418;28;20468;-87
2023/04/22 11:07:54;;;;;;;2.10;1.90;;;24.60;41.60;;;;;;5059449;28;20598;-87
2023/04/22 11:10:36;;;;;;;2.40;2.17;;;24.70;41.60;;;;;;5091836;28;20438;-88
2023/04/22 11:13:06;;;;;;;2.17;2.00;;;25.00;41.30;;;;;;5074326;28;20574;-86
2023/04/22 11:15:37;;;;;;;1.97;1.80;;;25.20;40.10;;;;;;5069510;28;20448;-84
2023/04/22 11:18:08;;;;;;;9.40;4.67;;;25.30;38.90;;;;;;5066595;28;21047;-85
2023/04/22 11:20:36;;;;;;;4.63;2.57;;;25.40;38.90;;;;;;5057571;28;20467;-87
2023/04/22 11:23:03;;;;;;;1.80;1.70;;;25.30;38.00;;;;;;5064628;28;20568;-87
2023/04/22 11:25:30;;;;;;;1.70;1.60;;;25.30;37.00;;;;;;5089610;28;20444;-86
2023/04/22 11:27:58;;;;;;;1.87;1.60;;;25.50;37.20;;;;;;5075628;28;20563;-85
2023/04/22 11:30:28;;;;;;;1.60;1.50;;;25.50;36.50;;;;;;5073056;28;20543;-85
2023/04/22 11:32:57;;;;;;;6.37;4.07;;;25.50;36.20;;;;;;5062214;28;20528;-88
2023/04/22 11:35:29;;;;;;;2.60;2.17;;;25.40;36.70;;;;;;5089415;28;20442;-86
2023/04/22 11:37:58;;;;;;;4.07;1.90;;;25.80;37.70;;;;;;5047443;28;21028;-86
2023/04/22 11:40:28;;;;;;;5.03;1.57;;;26.10;36.10;;;;;;5073062;28;20557;-86
2023/04/22 11:42:56;;;;;;;1.63;1.53;;;26.20;34.40;;;;;;5103565;27;20500;-86
2023/04/22 11:45:23;;;;;;;6.90;1.80;;;26.40;33.70;;;;;;5087113;28;20553;-86
2023/04/22 11:47:53;;;;;;;1.73;1.47;;;26.40;35.80;;;;;;5044779;28;20503;-85
2023/04/22 11:50:23;;;;;;;4.33;2.43;;;26.50;34.40;;;;;;5089557;28;20875;-85
2023/04/22 11:52:52;;;;;;;1.60;1.50;;;26.40;33.50;;;;;;5057830;28;21139;-85
2023/04/22 11:55:25;;;;;;;1.60;1.33;;;26.20;34.10;;;;;;5087443;28;20458;-86
2023/04/22 11:57:56;;;;;;;1.53;1.43;;;26.40;35.00;;;;;;5056290;28;20771;-85
2023/04/22 12:00:24;;;;;;;1.97;1.87;;;26.40;34.90;;;;;;5073135;28;20448;-85
2023/04/22 12:03:03;;;;;;;2.70;1.73;;;26.10;32.60;;;;;;5091485;28;20823;-86
2023/04/22 12:05:39;;;;;;;1.70;1.60;;;26.20;35.70;;;;;;5066392;28;20451;-85
2023/04/22 12:08:11;;;;;;;2.07;1.67;;;26.40;35.10;;;;;;5068108;28;21137;-86
2023/04/22 12:10:43;;;;;;;2.57;1.40;;;26.90;34.50;;;;;;5077417;28;20449;-85
2023/04/22 12:13:11;;;;;;;1.63;1.53;;;27.30;33.10;;;;;;5092867;27;20494;-86
2023/04/22 12:15:40;;;;;;;1.50;1.40;;;26.90;34.40;;;;;;5070865;28;21054;-85
2023/04/22 12:18:08;;;;;;;6.93;2.80;;;26.90;33.30;;;;;;5091201;28;20439;-86
2023/04/22 12:20:36;;;;;;;4.33;1.80;;;26.40;33.80;;;;;;5049722;28;20476;-87
2023/04/22 12:23:04;;;;;;;1.70;1.60;;;26.50;34.60;;;;;;5074332;28;20495;-87
2023/04/22 12:25:32;;;;;;;1.43;1.33;;;26.40;34.50;;;;;;5063489;28;20461;-84
2023/04/22 12:27:59;;;;;;;1.70;1.60;;;26.60;35.00;;;;;;5051416;28;20463;-86
2023/04/22 12:30:27;;;;;;;2.57;1.47;;;26.80;34.70;;;;;;5067437;28;20456;-85
2023/04/22 12:32:54;;;;;;;4.27;1.53;;;27.10;32.80;;;;;;5056031;28;20487;-85
2023/04/22 12:35:22;;;;;;;2.33;1.90;;;27.10;33.10;;;;;;5050010;28;20451;-86
2023/04/22 12:37:50;;;;;;;2.37;1.50;;;27.20;34.40;;;;;;5065672;28;20483;-86
2023/04/22 12:40:17;;;;;;;4.10;2.10;;;27.20;33.20;;;;;;5094348;27;21043;-85
2023/04/22 12:42:44;;;;;;;12.37;7.97;;;27.20;34.30;;;;;;5086509;28;20534;-85
2023/04/22 12:45:11;;;;;;;6.13;3.50;;;27.10;32.10;;;;;;5073286;28;20496;-84
2023/04/22 12:47:38;;;;;;;2.30;2.00;;;27.10;34.20;;;;;;5082981;28;20545;-85
2023/04/22 12:50:06;;;;;;;12.50;5.20;;;27.20;33.80;;;;;;5085433;27;20454;-87
2023/04/22 12:52:35;;;;;;;5.23;2.67;;;27.40;33.20;;;;;;5106802;27;20459;-84